Time;durP1;ratioP1;P1;durP2;ratioP2;P2;SDS_P1;SDS_P2;PMS_P1;PMS_P2;Temp;Humidity;BMP_temperature;BMP_pressure;BME280_temperature;BME280_humidity;BME280_pressure;Samples;Min_cycle;Max_cycle;Signal;HPM_P1;HPM_P2
2021/09/07 00:01:05;;;;;;;;;;;;;;;22.07;28.95;98900.28;5023108;28;908;-78
2021/09/07 00:03:33;;;;;;;;;;;;;;;22.13;29.04;98895.00;5022297;28;842;-79
2021/09/07 00:06:00;;;;;;;;;;;;;;;22.10;28.94;98894.59;5022097;28;975;-79
2021/09/07 00:08:25;;;;;;;;;;;;;;;22.15;28.87;98899.00;5021986;28;663;-79
2021/09/07 00:10:51;;;;;;;;;;;;;;;22.17;28.83;98899.34;5023030;28;690;-79
2021/09/07 00:13:18;;;;;;;;;;;;;;;22.10;28.61;98897.44;5021806;28;905;-79
2021/09/07 00:15:45;;;;;;;;;;;;;;;21.94;28.93;98888.75;5022306;28;897;-79
2021/09/07 00:18:11;;;;;;;;;;;;;;;22.06;28.85;98895.84;5005126;28;1055;-79
2021/09/07 00:20:37;;;;;;;;;;;;;;;22.05;28.69;98888.59;5005163;28;1983;-79
2021/09/07 00:23:02;;;;;;;;;;;;;;;21.89;29.04;98885.56;5004771;28;838;-79
2021/09/07 00:25:28;;;;;;;;;;;;;;;22.02;28.71;98881.75;5022333;28;666;-79
2021/09/07 00:27:53;;;;;;;;;;;;;;;22.14;28.81;98886.06;5022125;28;659;-79
2021/09/07 00:30:19;;;;;;;;;;;;;;;22.11;28.50;98881.22;5022164;28;652;-79
2021/09/07 00:32:44;;;;;;;;;;;;;;;22.16;28.51;98889.25;5021777;28;869;-79
2021/09/07 00:35:11;;;;;;;;;;;;;;;21.94;28.75;98882.28;5004489;28;935;-79
2021/09/07 00:37:38;;;;;;;;;;;;;;;22.04;28.69;98875.66;4988790;28;847;-79
2021/09/07 00:40:04;;;;;;;;;;;;;;;22.06;28.89;98885.31;5004951;28;1967;-79
2021/09/07 00:42:34;;;;;;;;;;;;;;;22.04;28.81;98881.31;5022199;28;678;-79
2021/09/07 00:45:00;;;;;;;;;;;;;;;22.00;28.92;98870.03;5021750;28;657;-79
2021/09/07 00:47:25;;;;;;;;;;;;;;;22.00;28.87;98874.88;5004838;28;943;-79
2021/09/07 00:49:50;;;;;;;;;;;;;;;22.17;28.81;98873.84;5021514;28;874;-79
2021/09/07 00:52:16;;;;;;;;;;;;;;;22.19;28.88;98879.09;5021998;28;973;-79
2021/09/07 00:54:41;;;;;;;;;;;;;;;22.05;28.98;98882.91;5021720;28;619;-79
2021/09/07 00:57:07;;;;;;;;;;;;;;;22.18;28.78;98874.69;5004396;28;803;-79
2021/09/07 00:59:33;;;;;;;;;;;;;;;22.24;28.67;98879.44;5004060;28;1934;-79
2021/09/07 01:01:59;;;;;;;;;;;;;;;22.12;28.72;98877.16;5004501;28;885;-79
2021/09/07 01:04:26;;;;;;;;;;;;;;;22.20;28.71;98883.53;5004440;28;992;-79
2021/09/07 01:06:52;;;;;;;;;;;;;;;22.17;28.53;98881.56;5021965;28;1006;-79
2021/09/07 01:09:21;;;;;;;;;;;;;;;22.06;28.89;98873.19;5020877;28;610;-79
2021/09/07 01:11:47;;;;;;;;;;;;;;;22.04;28.82;98875.66;5004629;28;722;-79
2021/09/07 01:14:15;;;;;;;;;;;;;;;22.24;28.48;98873.75;5020983;28;900;-79
2021/09/07 01:16:41;;;;;;;;;;;;;;;21.95;28.93;98875.38;5021197;28;806;-79
2021/09/07 01:19:07;;;;;;;;;;;;;;;22.26;28.62;98876.16;5021137;28;1980;-79
2021/09/07 01:21:33;;;;;;;;;;;;;;;22.25;28.57;98881.03;5021873;28;678;-79
2021/09/07 01:23:58;;;;;;;;;;;;;;;22.09;28.73;98878.81;5021206;28;630;-79
2021/09/07 01:26:24;;;;;;;;;;;;;;;21.99;28.72;98878.97;5021701;28;636;-79
2021/09/07 01:28:50;;;;;;;;;;;;;;;21.99;28.89;98873.28;5020985;28;1078;-79
2021/09/07 01:31:20;;;;;;;;;;;;;;;21.88;29.05;98881.16;5021018;28;905;-79
2021/09/07 01:33:47;;;;;;;;;;;;;;;22.03;28.57;98874.06;5004397;28;842;-80
2021/09/07 01:36:14;;;;;;;;;;;;;;;22.01;28.66;98870.81;4988201;28;951;-79
2021/09/07 01:38:40;;;;;;;;;;;;;;;22.03;28.74;98868.38;5003626;28;1906;-79
2021/09/07 01:41:05;;;;;;;;;;;;;;;21.99;28.93;98873.28;5004131;28;921;-79
2021/09/07 01:43:31;;;;;;;;;;;;;;;22.10;28.58;98873.94;5020540;28;952;-79
2021/09/07 01:45:56;;;;;;;;;;;;;;;21.96;28.99;98868.47;5021422;28;885;-79
2021/09/07 01:48:22;;;;;;;;;;;;;;;22.03;28.76;98871.22;5003533;28;781;-79
2021/09/07 01:50:48;;;;;;;;;;;;;;;22.16;28.78;98872.25;5021426;28;606;-79
2021/09/07 01:53:15;;;;;;;;;;;;;;;22.12;28.46;98874.31;5020841;28;874;-79
2021/09/07 01:55:40;;;;;;;;;;;;;;;22.07;28.75;98861.44;5021205;28;629;-79
2021/09/07 01:58:07;;;;;;;;;;;;;;;22.06;28.49;98864.69;5020407;28;1032;-79
2021/09/07 02:00:33;;;;;;;;;;;;;;;21.85;28.94;98863.75;5003303;28;2046;-78
2021/09/07 02:02:59;;;;;;;;;;;;;;;22.01;28.78;98859.50;4998899;28;889;-79
2021/09/07 02:05:25;;;;;;;;;;;;;;;22.17;28.64;98856.03;5020825;28;993;-79
2021/09/07 02:07:51;;;;;;;;;;;;;;;22.00;28.67;98863.56;5004135;28;639;-79
2021/09/07 02:10:19;;;;;;;;;;;;;;;21.97;28.84;98858.75;5003900;28;751;-79
2021/09/07 02:12:45;;;;;;;;;;;;;;;22.15;28.60;98859.31;5003899;28;878;-79
2021/09/07 02:15:14;;;;;;;;;;;;;;;21.95;28.88;98864.03;5020474;28;858;-79
2021/09/07 02:17:40;;;;;;;;;;;;;;;22.08;28.50;98859.41;5020910;28;909;-79
2021/09/07 02:20:06;;;;;;;;;;;;;;;22.04;28.92;98853.78;5005408;28;1976;-79
2021/09/07 02:22:36;;;;;;;;;;;;;;;22.09;28.75;98855.31;5007414;28;780;-79
2021/09/07 02:25:01;;;;;;;;;;;;;;;22.24;28.47;98856.75;5006704;28;870;-79
2021/09/07 02:27:28;;;;;;;;;;;;;;;22.27;28.53;98861.53;5007655;28;706;-79
2021/09/07 02:29:55;;;;;;;;;;;;;;;21.77;29.24;98862.25;5024377;28;642;-79
2021/09/07 02:32:21;;;;;;;;;;;;;;;21.90;28.83;98853.19;5007104;28;889;-79
2021/09/07 02:34:46;;;;;;;;;;;;;;;22.05;28.88;98863.06;5023596;28;911;-80
2021/09/07 02:37:12;;;;;;;;;;;;;;;21.92;28.88;98862.06;4990575;28;1088;-79
2021/09/07 02:39:38;;;;;;;;;;;;;;;22.18;28.73;98863.34;5023737;28;1906;-79
2021/09/07 02:42:04;;;;;;;;;;;;;;;22.03;28.65;98855.00;5006930;28;908;-79
2021/09/07 02:44:30;;;;;;;;;;;;;;;22.04;28.78;98858.66;5006677;28;647;-79
2021/09/07 02:46:56;;;;;;;;;;;;;;;22.10;28.67;98857.75;5023903;28;922;-79
2021/09/07 02:49:22;;;;;;;;;;;;;;;22.02;28.72;98861.09;5006452;28;856;-79
2021/09/07 02:51:48;;;;;;;;;;;;;;;22.06;28.60;98856.19;5024422;28;987;-79
2021/09/07 02:54:14;;;;;;;;;;;;;;;22.21;28.54;98863.25;5006861;28;1074;-79
2021/09/07 02:56:40;;;;;;;;;;;;;;;22.03;28.85;98859.88;5006849;28;843;-77
2021/09/07 02:59:06;;;;;;;;;;;;;;;22.19;28.60;98854.41;5006115;28;1957;-79
2021/09/07 03:01:32;;;;;;;;;;;;;;;22.15;28.70;98853.63;5006297;28;838;-79
2021/09/07 03:03:58;;;;;;;;;;;;;;;22.25;28.24;98858.34;5023045;28;851;-79
2021/09/07 03:06:24;;;;;;;;;;;;;;;22.29;28.56;98859.09;5023307;28;1178;-78
2021/09/07 03:08:52;;;;;;;;;;;;;;;22.07;28.75;98847.25;5006536;28;625;-79
2021/09/07 03:11:18;;;;;;;;;;;;;;;22.06;28.85;98845.63;5023696;28;671;-78
2021/09/07 03:13:44;;;;;;;;;;;;;;;22.16;28.42;98843.09;5022722;28;891;-78
2021/09/07 03:16:15;;;;;;;;;;;;;;;21.98;28.93;98852.66;5023033;28;908;-79
2021/09/07 03:18:41;;;;;;;;;;;;;;;22.13;28.71;98849.66;5022663;28;1976;-80
2021/09/07 03:21:07;;;;;;;;;;;;;;;22.28;28.36;98851.81;5023140;28;713;-79
2021/09/07 03:23:33;;;;;;;;;;;;;;;22.16;28.36;98855.25;5005564;28;1108;-78
2021/09/07 03:25:59;;;;;;;;;;;;;;;22.12;28.74;98850.84;5012592;28;1195;-79
2021/09/07 03:28:25;;;;;;;;;;;;;;;22.08;28.48;98848.06;5012314;28;1167;-79
2021/09/07 03:30:54;;;;;;;;;;;;;;;22.14;28.43;98846.38;5002611;28;977;-78
2021/09/07 03:33:22;;;;;;;;;;;;;;;22.07;28.62;98852.09;4986238;28;844;-78
2021/09/07 03:35:48;;;;;;;;;;;;;;;22.01;28.56;98848.94;5003499;28;667;-77
2021/09/07 03:38:16;;;;;;;;;;;;;;;21.95;28.52;98849.88;5002788;28;623;-79
2021/09/07 03:40:42;;;;;;;;;;;;;;;21.95;28.61;98852.69;5003241;28;1898;-79
2021/09/07 03:43:07;;;;;;;;;;;;;;;22.03;28.63;98859.88;4985666;28;829;-79
2021/09/07 03:45:34;;;;;;;;;;;;;;;22.16;28.43;98858.06;4969825;28;986;-79
2021/09/07 03:47:59;;;;;;;;;;;;;;;21.99;28.67;98856.28;5002907;28;882;-79
2021/09/07 03:50:25;;;;;;;;;;;;;;;22.04;28.50;98858.66;5002905;28;628;-79
2021/09/07 03:52:52;;;;;;;;;;;;;;;22.04;28.30;98867.94;4986327;28;663;-79
2021/09/07 03:55:18;;;;;;;;;;;;;;;22.00;28.59;98860.72;5003035;28;666;-79
2021/09/07 03:57:44;;;;;;;;;;;;;;;22.10;28.32;98859.75;5002571;28;942;-79
2021/09/07 04:00:11;;;;;;;;;;;;;;;22.02;28.33;98866.75;5002805;28;1973;-79
2021/09/07 04:02:39;;;;;;;;;;;;;;;21.98;28.63;98863.19;4986648;28;835;-79
2021/09/07 04:05:06;;;;;;;;;;;;;;;21.93;28.38;98860.84;4985577;28;1101;-79
2021/09/07 04:07:32;;;;;;;;;;;;;;;21.93;28.66;98863.66;4986252;28;643;-79
2021/09/07 04:09:59;;;;;;;;;;;;;;;22.10;28.50;98869.09;5002535;28;674;-79
2021/09/07 04:12:24;;;;;;;;;;;;;;;22.16;28.46;98872.25;4985044;28;900;-79
2021/09/07 04:14:50;;;;;;;;;;;;;;;22.14;28.52;98877.56;5002317;28;832;-79
2021/09/07 04:17:16;;;;;;;;;;;;;;;22.24;28.36;98872.97;5002826;28;983;-79
2021/09/07 04:19:44;;;;;;;;;;;;;;;22.08;28.48;98870.72;4985755;28;1980;-79
2021/09/07 04:22:09;;;;;;;;;;;;;;;21.88;28.76;98866.97;4985325;28;942;-79
2021/09/07 04:24:44;;;;;;;;;;;;;;;21.90;28.87;98870.19;5002385;28;726;-79
2021/09/07 04:27:15;;;;;;;;;;;;;;;21.99;28.58;98874.09;4985473;28;838;-79
2021/09/07 04:29:41;;;;;;;;;;;;;;;21.96;28.82;98879.81;5001654;28;888;-79
2021/09/07 04:32:06;;;;;;;;;;;;;;;22.05;28.62;98877.25;5002286;28;1102;-79
2021/09/07 04:34:32;;;;;;;;;;;;;;;21.84;28.91;98879.16;5002041;28;699;-79
2021/09/07 04:36:57;;;;;;;;;;;;;;;21.95;28.86;98878.19;4984829;28;854;-79
2021/09/07 04:39:23;;;;;;;;;;;;;;;22.19;28.59;98868.56;5001802;28;1911;-79
2021/09/07 04:41:48;;;;;;;;;;;;;;;22.14;28.24;98880.38;4969174;28;1017;-79
2021/09/07 04:44:14;;;;;;;;;;;;;;;22.11;28.63;98881.22;4983997;28;894;-79
2021/09/07 04:46:41;;;;;;;;;;;;;;;21.69;29.08;98877.72;4985395;28;1014;-79
2021/09/07 04:49:06;;;;;;;;;;;;;;;22.15;28.52;98876.31;4984744;28;769;-79
2021/09/07 04:51:32;;;;;;;;;;;;;;;22.21;28.21;98888.78;4985000;28;948;-79
2021/09/07 04:53:59;;;;;;;;;;;;;;;22.13;28.48;98884.47;4984703;28;779;-79
2021/09/07 04:56:25;;;;;;;;;;;;;;;22.14;28.44;98888.88;5001819;28;1123;-79
2021/09/07 04:58:50;;;;;;;;;;;;;;;22.24;28.33;98885.09;4984649;28;1914;-79
2021/09/07 05:01:16;;;;;;;;;;;;;;;22.18;28.62;98886.81;5001973;28;890;-79
2021/09/07 05:03:41;;;;;;;;;;;;;;;22.25;28.48;98886.69;5001497;28;715;-79
2021/09/07 05:06:07;;;;;;;;;;;;;;;22.15;28.46;98895.34;5002124;28;964;-79
2021/09/07 05:08:35;;;;;;;;;;;;;;;22.18;28.64;98891.69;5001593;28;762;-79
2021/09/07 05:11:01;;;;;;;;;;;;;;;22.16;28.63;98903.44;5001020;28;834;-78
2021/09/07 05:13:26;;;;;;;;;;;;;;;22.06;28.88;98896.66;4984794;28;989;-76
2021/09/07 05:15:52;;;;;;;;;;;;;;;21.93;29.47;98897.66;5000818;28;976;-73
2021/09/07 05:18:17;;;;;;;;;;;;;;;22.04;29.85;98904.00;5002925;28;607;-79
2021/09/07 05:20:42;;;;;;;;;;;;;;;22.31;29.12;98904.81;5006719;28;1991;-79
2021/09/07 05:23:08;;;;;;;;;;;;;;;22.22;29.49;98909.41;5005540;28;950;-79
2021/09/07 05:25:33;;;;;;;;;;;;;;;22.43;28.81;98896.94;5005969;28;898;-79
2021/09/07 05:27:59;;;;;;;;;;;;;;;22.55;28.98;98904.88;5003724;28;836;-80
2021/09/07 05:30:24;;;;;;;;;;;;;;;22.31;29.04;98913.31;4974086;28;838;-81
2021/09/07 05:32:50;;;;;;;;;;;;;;;22.48;28.76;98910.63;5008336;28;786;-81
2021/09/07 05:35:15;;;;;;;;;;;;;;;22.47;28.78;98903.38;4991530;28;761;-72
2021/09/07 05:37:41;;;;;;;;;;;;;;;22.85;28.91;98906.81;5000497;28;926;-71
2021/09/07 05:40:07;;;;;;;;;;;;;;;22.62;30.10;98905.53;5000378;28;1993;-70
2021/09/07 06:42:52;;;;;;;;;;;;;;;23.20;31.58;98939.44;4918638;29;1867;-74
2021/09/07 06:45:17;;;;;;;;;;;;;;;22.91;32.07;98932.69;4917616;29;888;-78
2021/09/07 06:47:43;;;;;;;;;;;;;;;23.20;32.23;98939.44;4904080;29;1214;-81
2021/09/07 06:50:08;;;;;;;;;;;;;;;23.57;31.72;98944.03;4917350;29;647;-81
2021/09/07 06:52:34;;;;;;;;;;;;;;;23.64;32.08;98945.94;4918908;29;732;-80
2021/09/07 06:54:59;;;;;;;;;;;;;;;23.77;31.50;98954.59;4921143;29;1046;-81
2021/09/07 06:57:28;;;;;;;;;;;;;;;23.95;31.24;98957.91;4921083;29;927;-84
2021/09/07 06:59:54;;;;;;;;;;;;;;;24.09;31.20;98951.13;4912462;29;964;-81
2021/09/07 07:02:20;;;;;;;;;;;;;;;24.09;31.52;98951.13;4917230;29;1910;-85
2021/09/07 07:04:45;;;;;;;;;;;;;;;23.87;31.29;98948.69;4916860;29;815;-80
2021/09/07 07:07:11;;;;;;;;;;;;;;;23.70;31.53;98944.19;4916924;29;655;-84
2021/09/07 07:09:37;;;;;;;;;;;;;;;23.49;32.33;98955.97;4901003;29;1060;-81
2021/09/07 07:12:03;;;;;;;;;;;;;;;23.84;32.13;98960.97;4901329;29;973;-78
2021/09/07 07:14:29;;;;;;;;;;;;;;;23.59;32.19;98952.09;4916597;29;1410;-77
2021/09/07 07:16:54;;;;;;;;;;;;;;;24.01;31.47;98946.81;4901807;29;832;-76
2021/09/07 07:19:20;;;;;;;;;;;;;;;23.80;31.46;98953.75;4901521;29;675;-79
2021/09/07 07:21:48;;;;;;;;;;;;;;;23.74;31.34;98959.16;4901507;29;1903;-75
2021/09/07 07:24:16;;;;;;;;;;;;;;;23.73;31.46;98959.59;4901367;29;873;-77
2021/09/07 07:26:45;;;;;;;;;;;;;;;23.73;31.63;98948.22;4901886;29;1064;-78
2021/09/07 07:29:12;;;;;;;;;;;;;;;23.57;31.82;98951.72;4901427;29;652;-76
2021/09/07 07:31:37;;;;;;;;;;;;;;;23.80;32.00;98951.72;4901437;29;647;-79
2021/09/07 07:34:03;;;;;;;;;;;;;;;23.76;32.02;98965.19;4906940;29;863;-76
2021/09/07 07:36:28;;;;;;;;;;;;;;;23.75;31.66;98968.47;4889077;29;673;-75
2021/09/07 07:38:54;;;;;;;;;;;;;;;24.10;30.96;98972.63;4888949;29;757;-75
2021/09/07 07:41:19;;;;;;;;;;;;;;;24.11;30.96;98974.22;4888132;29;1970;-76
2021/09/07 07:43:46;;;;;;;;;;;;;;;24.06;31.04;98954.81;4888353;29;808;-73
2021/09/07 07:46:13;;;;;;;;;;;;;;;24.32;31.53;98973.75;4888820;29;908;-72
2021/09/07 07:48:40;;;;;;;;;;;;;;;24.28;30.60;98973.00;4888543;29;663;-73
2021/09/07 07:51:09;;;;;;;;;;;;;;;23.91;30.97;98972.19;4888563;29;675;-79
2021/09/07 07:53:35;;;;;;;;;;;;;;;23.84;31.10;98972.34;4888599;29;678;-79
2021/09/07 07:56:00;;;;;;;;;;;;;;;24.08;30.80;98980.75;4887635;29;975;-81
2021/09/07 07:58:26;;;;;;;;;;;;;;;24.54;30.38;98987.50;4888054;29;994;-81
2021/09/07 08:00:51;;;;;;;;;;;;;;;24.68;30.02;98987.19;4888345;29;1973;-78
2021/09/07 08:03:17;;;;;;;;;;;;;;;24.05;30.79;98982.47;4897273;29;714;-79
2021/09/07 08:05:42;;;;;;;;;;;;;;;24.30;31.60;98976.25;4890323;29;711;-76
2021/09/07 08:08:08;;;;;;;;;;;;;;;24.33;30.36;98978.19;4888143;29;675;-81
2021/09/07 08:10:34;;;;;;;;;;;;;;;24.45;30.67;98987.31;4888263;29;906;-81
2021/09/07 08:12:59;;;;;;;;;;;;;;;24.40;30.48;98991.50;4887876;29;988;-76
2021/09/07 08:15:25;;;;;;;;;;;;;;;24.14;31.60;99001.78;4888227;29;987;-80
2021/09/07 08:17:50;;;;;;;;;;;;;;;24.58;30.03;98989.03;4890580;29;1546;-81
2021/09/07 08:20:16;;;;;;;;;;;;;;;24.40;30.03;98991.50;4896251;29;705;-77
2021/09/07 08:22:41;;;;;;;;;;;;;;;24.36;30.26;98997.25;4887740;29;1907;-79
2021/09/07 08:25:07;;;;;;;;;;;;;;;24.47;30.34;99002.72;4887721;29;868;-81
2021/09/07 08:27:32;;;;;;;;;;;;;;;24.80;29.68;99003.56;4887973;29;1122;-80
2021/09/07 08:29:58;;;;;;;;;;;;;;;24.66;29.80;98995.38;4888064;29;616;-76
2021/09/07 08:32:23;;;;;;;;;;;;;;;24.56;30.25;98983.00;4887814;29;994;-79
2021/09/07 08:34:49;;;;;;;;;;;;;;;24.47;30.43;98987.69;4887801;29;710;-81
2021/09/07 08:37:14;;;;;;;;;;;;;;;24.23;30.65;98986.94;4887630;29;703;-80
2021/09/07 08:39:40;;;;;;;;;;;;;;;24.39;30.00;98984.19;4887344;29;1085;-80
2021/09/07 08:42:07;;;;;;;;;;;;;;;24.35;30.34;98989.97;4887240;29;1976;-77
2021/09/07 08:44:32;;;;;;;;;;;;;;;24.55;30.36;98991.94;4901724;29;853;-81
2021/09/07 08:46:58;;;;;;;;;;;;;;;24.40;30.43;98982.97;4887301;29;584;-79
2021/09/07 08:49:23;;;;;;;;;;;;;;;24.52;30.34;98975.78;4887505;29;655;-82
2021/09/07 08:51:49;;;;;;;;;;;;;;;24.68;29.70;98972.94;4887534;29;635;-79
2021/09/07 08:54:14;;;;;;;;;;;;;;;24.22;30.91;98974.78;4887080;29;982;-79
2021/09/07 08:56:40;;;;;;;;;;;;;;;24.32;30.58;98984.31;4887097;29;882;-81
2021/09/07 08:59:07;;;;;;;;;;;;;;;24.48;30.42;98975.84;4902261;29;937;-80
2021/09/07 09:01:36;;;;;;;;;;;;;;;24.41;30.18;98985.34;4901935;29;1976;-79
2021/09/07 09:04:01;;;;;;;;;;;;;;;24.45;30.01;98981.63;4887271;29;701;-80
2021/09/07 09:06:27;;;;;;;;;;;;;;;24.17;30.58;98984.63;4908661;29;1487;-80
2021/09/07 09:09:13;;;;;;;;;;;;;;;24.43;30.00;98977.16;4898827;29;1249;-80
2021/09/07 09:11:50;;;;;;;;;;;;;;;24.33;30.11;98972.50;4899577;29;973;-80
2021/09/07 09:14:35;;;;;;;;;;;;;;;24.52;29.89;98961.56;4893033;29;982;-82
2021/09/07 09:17:01;;;;;;;;;;;;;;;24.50;30.05;98983.94;4905105;29;699;-80
2021/09/07 09:19:26;;;;;;;;;;;;;;;24.35;29.92;98972.91;4905014;29;643;-78
2021/09/07 09:21:52;;;;;;;;;;;;;;;24.01;30.84;98975.25;4905514;29;1898;-77
2021/09/07 09:24:18;;;;;;;;;;;;;;;24.32;29.86;98982.28;4905102;29;604;-74
2021/09/07 09:26:50;;;;;;;;;;;;;;;23.66;31.22;98994.59;4905630;29;1007;-79
2021/09/07 09:29:19;;;;;;;;;;;;;;;23.93;30.83;98971.72;4904520;29;1257;-79
2021/09/07 09:31:51;;;;;;;;;;;;;;;24.14;30.32;98984.72;4905471;29;675;-76
2021/09/07 09:34:17;;;;;;;;;;;;;;;24.24;30.32;98977.19;4904790;29;760;-81
2021/09/07 09:36:58;;;;;;;;;;;;;;;24.18;30.42;98979.72;4905574;29;609;-77
2021/09/07 09:39:47;;;;;;;;;;;;;;;24.09;30.61;98971.03;4905096;29;911;-79
2021/09/07 09:42:16;;;;;;;;;;;;;;;24.50;30.29;98970.53;4899435;29;1964;-76
2021/09/07 09:44:42;;;;;;;;;;;;;;;24.35;30.38;98960.69;4904611;29;641;-80
2021/09/07 09:47:07;;;;;;;;;;;;;;;24.09;30.56;98965.34;4905233;29;711;-73
2021/09/07 09:49:33;;;;;;;;;;;;;;;24.25;30.22;98968.22;4905636;29;675;-77
2021/09/07 09:52:02;;;;;;;;;;;;;;;24.24;30.65;98977.19;4905106;29;695;-75
2021/09/07 09:54:28;;;;;;;;;;;;;;;24.32;30.44;98962.38;4904492;29;1074;-78
2021/09/07 09:56:54;;;;;;;;;;;;;;;24.32;30.22;98979.44;4904951;29;880;-79
2021/09/07 09:59:20;;;;;;;;;;;;;;;24.28;30.40;98970.16;4904294;29;984;-79
2021/09/07 10:01:45;;;;;;;;;;;;;;;24.28;30.30;98967.31;4904358;29;1968;-75
2021/09/07 10:04:11;;;;;;;;;;;;;;;24.11;30.95;98968.53;4904585;29;656;-82
2021/09/07 10:06:37;;;;;;;;;;;;;;;24.16;30.61;98973.69;4904350;29;781;-77
2021/09/07 10:09:02;;;;;;;;;;;;;;;24.17;30.53;98972.44;4904606;29;945;-80
2021/09/07 10:11:28;;;;;;;;;;;;;;;24.08;30.50;98975.06;4904938;29;932;-80
2021/09/07 10:13:55;;;;;;;;;;;;;;;24.01;30.36;98975.25;4912620;29;1465;-81
2021/09/07 10:16:43;;;;;;;;;;;;;;;23.81;30.34;98973.19;4920035;29;1466;-81
2021/09/07 10:19:25;;;;;;;;;;;;;;;23.83;30.27;98973.59;4885696;29;704;-80
2021/09/07 10:24:54;;;;;;;;;;;;;;;23.49;30.21;98973.00;4898471;29;905;-81
2021/09/07 10:27:20;;;;;;;;;;;;;;;23.54;29.98;98986.69;4887678;29;758;-81
2021/09/07 10:29:45;;;;;;;;;;;;;;;23.69;29.68;98970.22;4904834;29;679;-80
2021/09/07 10:32:30;;;;;;;;;;;;;;;23.56;29.86;98965.13;4904386;29;739;-81
2021/09/07 10:35:12;;;;;;;;;;;;;;;23.53;29.88;98979.44;4904080;29;616;-78
2021/09/07 10:37:56;;;;;;;;;;;;;;;23.51;29.57;98967.69;4904556;29;933;-78
2021/09/07 10:40:51;;;;;;;;;;;;;;;23.34;30.04;98972.47;4904369;29;875;-79
2021/09/07 10:43:35;;;;;;;;;;;;;;;23.29;29.68;98959.56;4896572;29;1915;-80
2021/09/07 10:46:00;;;;;;;;;;;;;;;23.42;29.64;98971.09;4904522;29;660;-81
2021/09/07 10:48:32;;;;;;;;;;;;;;;23.33;29.61;98965.19;4903934;29;1410;-81
2021/09/07 10:50:59;;;;;;;;;;;;;;;23.51;29.34;98967.69;4903698;29;789;-80
2021/09/07 10:53:24;;;;;;;;;;;;;;;23.49;29.21;98973.00;4903294;29;849;-82
2021/09/07 10:55:50;;;;;;;;;;;;;;;23.35;29.16;98949.31;4904033;29;882;-80
2021/09/07 10:58:32;;;;;;;;;;;;;;;23.40;29.46;98957.31;4903919;29;929;-83
2021/09/07 11:01:16;;;;;;;;;;;;;;;23.29;29.71;98942.53;4904042;29;1974;-83
2021/09/07 11:03:41;;;;;;;;;;;;;;;23.37;29.21;98961.03;4888213;29;1449;-83
2021/09/07 11:06:07;;;;;;;;;;;;;;;23.22;29.75;98958.91;4904526;29;650;-83
2021/09/07 11:08:32;;;;;;;;;;;;;;;23.21;29.42;98945.91;4904751;29;1505;-83
2021/09/07 11:10:58;;;;;;;;;;;;;;;23.16;29.56;98944.41;4907119;29;855;-83
2021/09/07 11:13:24;;;;;;;;;;;;;;;23.16;29.56;98955.75;4907228;29;1053;-83
2021/09/07 11:15:50;;;;;;;;;;;;;;;23.29;29.17;98953.09;4907714;29;631;-80
2021/09/07 11:18:21;;;;;;;;;;;;;;;23.17;29.49;98957.34;4907315;29;648;-82
2021/09/07 11:20:47;;;;;;;;;;;;;;;23.08;29.66;98942.91;4891825;29;1220;-81
2021/09/07 11:23:13;;;;;;;;;;;;;;;22.99;29.69;98945.50;4906772;29;1903;-83
2021/09/07 11:25:39;;;;;;;;;;;;;;;23.02;29.48;98936.94;4891514;29;1292;-84
2021/09/07 11:28:05;;;;;;;;;;;;;;;23.13;29.49;98936.75;4907346;29;1346;-83
2021/09/07 11:30:33;;;;;;;;;;;;;;;23.04;29.41;98948.66;4891617;29;605;-84
2021/09/07 11:32:59;;;;;;;;;;;;;;;23.08;29.33;98942.91;4906956;29;675;-83
2021/09/07 11:35:25;;;;;;;;;;;;;;;23.07;29.23;98936.44;4907125;29;751;-83
2021/09/07 11:37:54;;;;;;;;;;;;;;;23.01;29.43;98926.03;4906706;29;873;-83
2021/09/07 11:40:20;;;;;;;;;;;;;;;22.98;29.37;98924.03;4906563;29;921;-83
2021/09/07 11:43:07;;;;;;;;;;;;;;;22.90;29.44;98931.88;4906469;29;1898;-83
2021/09/07 11:45:32;;;;;;;;;;;;;;;22.93;29.36;98930.22;4906586;29;885;-83
2021/09/07 11:47:58;;;;;;;;;;;;;;;23.13;28.91;98925.38;4906787;29;684;-83
2021/09/07 11:50:24;;;;;;;;;;;;;;;22.99;29.02;98925.63;4891267;29;703;-83
2021/09/07 11:52:50;;;;;;;;;;;;;;;22.94;29.31;98926.13;4906414;29;976;-83
2021/09/07 11:55:35;;;;;;;;;;;;;;;23.06;29.03;98925.53;4906616;29;848;-83
2021/09/07 11:58:00;;;;;;;;;;;;;;;22.83;29.28;98927.09;4906576;29;844;-83
2021/09/07 12:00:26;;;;;;;;;;;;;;;22.93;29.23;98933.03;4906457;29;637;-81
2021/09/07 12:03:10;;;;;;;;;;;;;;;22.93;29.25;98933.03;4890808;29;1911;-83
2021/09/07 12:05:54;;;;;;;;;;;;;;;22.81;29.49;98923.88;4907164;29;672;-83
2021/09/07 12:08:20;;;;;;;;;;;;;;;22.84;29.09;98923.00;4906178;29;914;-83
2021/09/07 12:10:52;;;;;;;;;;;;;;;22.87;29.27;98921.34;4890422;29;936;-83
2021/09/07 12:13:19;;;;;;;;;;;;;;;22.82;29.01;98919.81;4890594;29;878;-82
2021/09/07 12:15:44;;;;;;;;;;;;;;;22.92;29.18;98923.72;4890634;29;749;-83
2021/09/07 12:18:23;;;;;;;;;;;;;;;22.86;29.26;98925.44;4906604;29;723;-83
2021/09/07 12:20:49;;;;;;;;;;;;;;;22.85;29.28;98913.28;4906150;29;599;-83
2021/09/07 12:23:29;;;;;;;;;;;;;;;22.79;29.03;98920.66;4905754;29;1899;-83
2021/09/07 12:25:55;;;;;;;;;;;;;;;22.84;28.93;98927.88;4889969;29;925;-81
2021/09/07 12:28:20;;;;;;;;;;;;;;;22.78;29.17;98929.59;4906670;29;664;-83
2021/09/07 12:30:46;;;;;;;;;;;;;;;22.79;29.15;98926.34;4890433;29;935;-83
2021/09/07 12:33:17;;;;;;;;;;;;;;;22.87;29.25;98927.81;4906711;29;694;-82
2021/09/07 12:35:52;;;;;;;;;;;;;;;22.88;28.91;98923.78;4906076;29;700;-83
2021/09/07 12:38:19;;;;;;;;;;;;;;;22.94;28.79;98917.63;4890073;29;933;-83
2021/09/07 12:40:48;;;;;;;;;;;;;;;22.84;28.99;98911.66;4905408;29;1116;-83
2021/09/07 12:43:17;;;;;;;;;;;;;;;22.84;28.94;98927.88;4905786;29;1966;-82
2021/09/07 12:45:43;;;;;;;;;;;;;;;22.77;28.81;98928.81;4906453;29;664;-83
2021/09/07 12:48:09;;;;;;;;;;;;;;;22.78;29.00;98923.94;4905766;29;766;-83
2021/09/07 12:50:34;;;;;;;;;;;;;;;22.87;29.01;98927.81;4906286;29;668;-83
2021/09/07 12:53:00;;;;;;;;;;;;;;;22.75;29.16;98936.97;4905912;29;952;-83
2021/09/07 12:55:26;;;;;;;;;;;;;;;22.84;28.76;98928.69;4905925;29;904;-83
2021/09/07 12:57:51;;;;;;;;;;;;;;;22.97;28.81;98925.28;4905588;29;976;-83
2021/09/07 13:00:17;;;;;;;;;;;;;;;22.85;28.80;98916.13;4905375;29;932;-81
2021/09/07 13:02:42;;;;;;;;;;;;;;;22.70;28.81;98911.91;4905428;29;1910;-83
2021/09/07 13:05:08;;;;;;;;;;;;;;;22.62;29.29;98927.44;4905349;29;790;-82
2021/09/07 13:07:33;;;;;;;;;;;;;;;22.69;29.13;98916.00;4904956;29;902;-83
2021/09/07 13:09:59;;;;;;;;;;;;;;;22.71;29.10;98919.19;4904862;29;880;-83
2021/09/07 13:12:24;;;;;;;;;;;;;;;22.68;28.93;98931.38;4906005;29;1113;-83
2021/09/07 13:14:50;;;;;;;;;;;;;;;22.72;28.92;98917.94;4889688;29;848;-83
2021/09/07 13:17:15;;;;;;;;;;;;;;;22.79;28.74;98917.81;4905348;29;667;-83
2021/09/07 13:19:41;;;;;;;;;;;;;;;22.74;28.80;98924.03;4889422;29;804;-82
2021/09/07 13:22:06;;;;;;;;;;;;;;;22.66;28.73;98921.72;4904861;29;1907;-83
2021/09/07 13:24:33;;;;;;;;;;;;;;;22.82;28.74;98931.16;4889100;29;875;-83
2021/09/07 13:26:58;;;;;;;;;;;;;;;22.70;28.88;98917.59;4905729;29;987;-83
2021/09/07 13:29:24;;;;;;;;;;;;;;;22.57;29.05;98910.91;4904674;29;871;-83
2021/09/07 13:31:51;;;;;;;;;;;;;;;22.63;28.88;98917.69;4889213;29;1268;-83
2021/09/07 13:34:16;;;;;;;;;;;;;;;22.60;28.89;98918.56;4889072;29;855;-83
2021/09/07 13:36:42;;;;;;;;;;;;;;;22.59;28.97;98916.97;4904891;29;845;-83
2021/09/07 13:39:07;;;;;;;;;;;;;;;22.67;28.82;98909.13;4904823;29;886;-83
2021/09/07 13:41:33;;;;;;;;;;;;;;;22.72;28.78;98914.31;4904566;29;1911;-83
2021/09/07 13:43:58;;;;;;;;;;;;;;;22.79;28.61;98909.31;4889058;29;882;-83
2021/09/07 13:46:24;;;;;;;;;;;;;;;22.74;28.55;98907.00;4904734;29;660;-82
2021/09/07 13:48:49;;;;;;;;;;;;;;;22.60;28.84;98904.38;4904746;29;881;-83
2021/09/07 13:51:15;;;;;;;;;;;;;;;22.56;28.98;98900.81;4888503;29;1058;-83
2021/09/07 13:53:40;;;;;;;;;;;;;;;22.77;28.65;98894.75;4904382;29;952;-83
2021/09/07 13:56:06;;;;;;;;;;;;;;;22.64;28.86;98896.63;4904680;29;926;-83
2021/09/07 13:58:31;;;;;;;;;;;;;;;22.54;28.94;98891.94;4904381;29;684;-83
2021/09/07 14:00:56;;;;;;;;;;;;;;;22.67;28.55;98890.06;4904620;29;843;-83
2021/09/07 14:03:22;;;;;;;;;;;;;;;22.63;28.70;98889.31;4904771;29;1990;-83
2021/09/07 14:05:48;;;;;;;;;;;;;;;22.65;28.38;98886.88;4904202;29;865;-83
2021/09/07 14:08:13;;;;;;;;;;;;;;;22.64;28.73;98888.13;4904097;29;958;-83